Time;durP1;ratioP1;P1;durP2;ratioP2;P2;SDS_P1;SDS_P2;PMS_P1;PMS_P2;Temp;Humidity;BMP_temperature;BMP_pressure;BME280_temperature;BME280_humidity;BME280_pressure;Samples;Min_cycle;Max_cycle;Signal;HPM_P1;HPM_P2
2024/02/21 00:01:52;;;;;;;16.50;4.00;;;;;;;;;;103632;1290;544900;-73
2024/02/21 00:05:30;;;;;;;17.60;4.60;;;;;;;;;;103810;1289;544942;-73
2024/02/21 00:09:09;;;;;;;14.50;3.80;;;;;;;;;;103726;1291;545512;-73
2024/02/21 00:12:46;;;;;;;14.70;4.90;;;;;;;;;;103949;1289;545505;-73
2024/02/21 00:16:23;;;;;;;19.20;4.50;;;;;;;;;;103765;1292;544617;-73
2024/02/21 00:20:00;;;;;;;15.40;3.90;;;;;;;;;;103776;1290;544703;-73
2024/02/21 00:23:37;;;;;;;14.50;3.80;;;;;;;;;;103753;1290;545124;-73
2024/02/21 00:27:11;;;;;;;14.90;4.20;;;;;;;;;;103785;1289;545902;-73
2024/02/21 00:30:54;;;;;;;14.10;3.70;;;;;;;;;;103750;1292;545494;-73
2024/02/21 00:34:30;;;;;;;15.20;3.90;;;;;;;;;;103810;1289;544713;-73
2024/02/21 00:38:07;;;;;;;14.70;4.50;;;;;;;;;;103691;1289;544816;-73
2024/02/21 00:41:45;;;;;;;17.40;6.00;;;;;;;;;;103696;1292;545099;-73
2024/02/21 00:45:23;;;;;;;17.20;5.70;;;;;;;;;;103785;1289;545947;-73
2024/02/21 00:49:00;;;;;;;13.70;4.30;;;;;;;;;;103960;1290;545426;-73
2024/02/21 00:52:37;;;;;;;12.40;4.10;;;;;;;;;;103623;1291;544984;-73
2024/02/21 00:56:16;;;;;;;15.50;6.20;;;;;;;;;;103828;1292;544972;-73
2024/02/21 00:59:52;;;;;;;34.20;15.80;;;;;;;;;;103724;1289;545295;-72
2024/02/21 01:03:30;;;;;;;24.50;8.90;;;;;;;;;;103625;1291;544983;-73
2024/02/21 01:07:07;;;;;;;19.60;7.00;;;;;;;;;;103813;1289;544845;-73
2024/02/21 01:10:45;;;;;;;14.30;4.70;;;;;;;;;;103718;1291;545861;-73
2024/02/21 01:14:22;;;;;;;14.70;4.10;;;;;;;;;;103745;1292;544987;-73
2024/02/21 01:18:01;;;;;;;12.10;3.40;;;;;;;;;;103783;1289;545059;-73
2024/02/21 01:21:37;;;;;;;12.00;3.30;;;;;;;;;;103837;1292;545852;-73
2024/02/21 01:25:11;;;;;;;12.40;3.30;;;;;;;;;;103748;1292;545497;-71
2024/02/21 01:28:53;;;;;;;12.80;3.70;;;;;;;;;;103746;1291;544988;-73
2024/02/21 01:32:30;;;;;;;14.60;5.30;;;;;;;;;;103752;1291;545322;-73
2024/02/21 01:36:07;;;;;;;26.90;12.80;;;;;;;;;;103779;1292;544771;-73
2024/02/21 01:39:45;;;;;;;21.30;8.60;;;;;;;;;;103662;1289;545025;-73
2024/02/21 01:43:21;;;;;;;15.20;5.20;;;;;;;;;;103728;1289;545425;-73
2024/02/21 01:47:00;;;;;;;14.30;4.30;;;;;;;;;;103730;1302;544833;-73
2024/02/21 01:50:37;;;;;;;15.10;4.20;;;;;;;;;;103813;1293;544963;-73
2024/02/21 01:54:16;;;;;;;14.10;4.00;;;;;;;;;;103417;1291;545272;-73
2024/02/21 01:57:52;;;;;;;14.70;4.20;;;;;;;;;;103738;1289;545015;-73
2024/02/21 02:01:30;;;;;;;15.70;7.20;;;;;;;;;;103645;1291;544974;-73
2024/02/21 02:05:07;;;;;;;16.30;6.00;;;;;;;;;;103775;1292;545126;-73
2024/02/21 02:08:44;;;;;;;14.20;5.40;;;;;;;;;;103767;1292;544984;-73
2024/02/21 02:12:22;;;;;;;12.30;4.00;;;;;;;;;;103779;1290;544724;-73
2024/02/21 02:16:00;;;;;;;15.90;4.90;;;;;;;;;;103775;1291;544989;-73
2024/02/21 02:19:37;;;;;;;16.20;6.10;;;;;;;;;;103798;1289;544960;-73
2024/02/21 02:23:27;;;;;;;19.40;6.80;;;;;;;;;;103511;1295;545898;-72
2024/02/21 02:26:52;;;;;;;16.40;6.60;;;;;;;;;;103727;1292;545855;-73
2024/02/21 02:30:36;;;;;;;16.60;5.90;;;;;;;;;;103554;1291;545386;-73
2024/02/21 02:34:26;;;;;;;14.20;5.00;;;;;;;;;;103734;1292;548064;-73
2024/02/21 02:37:47;;;;;;;13.40;5.00;;;;;;;;;;103925;1289;546579;-73
2024/02/21 02:41:21;;;;;;;12.70;4.50;;;;;;;;;;103748;1290;544983;-72
2024/02/21 02:44:59;;;;;;;12.50;4.10;;;;;;;;;;103680;1294;545892;-73
2024/02/21 02:48:38;;;;;;;12.40;4.10;;;;;;;;;;103778;1290;545532;-73
2024/02/21 02:52:14;;;;;;;14.40;4.70;;;;;;;;;;103645;1289;545965;-73
2024/02/21 02:55:51;;;;;;;15.20;5.60;;;;;;;;;;103816;1289;545030;-73
2024/02/21 02:59:28;;;;;;;15.60;6.40;;;;;;;;;;103775;1289;545750;-73
2024/02/21 03:03:08;;;;;;;18.20;5.80;;;;;;;;;;103897;1289;546103;-72
2024/02/21 03:06:44;;;;;;;15.60;5.20;;;;;;;;;;104365;1285;544934;-73
2024/02/21 03:10:21;;;;;;;15.60;5.00;;;;;;;;;;103859;1288;544938;-72
2024/02/21 03:13:58;;;;;;;14.60;5.30;;;;;;;;;;103637;1291;544946;-72
2024/02/21 03:17:36;;;;;;;13.60;4.80;;;;;;;;;;103807;1289;545077;-73
2024/02/21 03:21:13;;;;;;;12.20;4.30;;;;;;;;;;103749;1289;545165;-73
2024/02/21 03:24:51;;;;;;;13.80;4.80;;;;;;;;;;103719;1291;544727;-73
2024/02/21 03:28:28;;;;;;;11.70;4.20;;;;;;;;;;103929;1288;544736;-73
2024/02/21 03:32:05;;;;;;;15.80;6.30;;;;;;;;;;103786;1289;545074;-73
2024/02/21 03:35:43;;;;;;;15.40;5.70;;;;;;;;;;103747;1294;545113;-73
2024/02/21 03:39:21;;;;;;;17.00;6.00;;;;;;;;;;103854;1292;544765;-73
2024/02/21 03:42:54;;;;;;;19.40;7.60;;;;;;;;;;103716;1292;545529;-73
2024/02/21 03:46:36;;;;;;;14.90;5.70;;;;;;;;;;103756;1294;544988;-73
2024/02/21 03:50:13;;;;;;;12.80;4.80;;;;;;;;;;103714;1298;544963;-73
2024/02/21 03:53:51;;;;;;;12.30;4.40;;;;;;;;;;103760;1289;545252;-73
2024/02/21 03:57:28;;;;;;;9.10;4.00;;;;;;;;;;103697;1289;545224;-73
2024/02/21 04:01:02;;;;;;;8.40;2.90;;;;;;;;;;103740;1291;545382;-72
2024/02/21 04:04:47;;;;;;;9.50;3.00;;;;;;;;;;103663;1292;545360;-73
2024/02/21 04:08:20;;;;;;;9.60;3.50;;;;;;;;;;103793;1289;544709;-73
2024/02/21 04:11:58;;;;;;;9.20;3.40;;;;;;;;;;103768;1289;545447;-73
2024/02/21 04:15:35;;;;;;;9.10;2.90;;;;;;;;;;103805;1292;544609;-73
2024/02/21 04:19:09;;;;;;;9.20;2.80;;;;;;;;;;103694;1290;544809;-72
2024/02/21 04:22:50;;;;;;;10.50;3.50;;;;;;;;;;103813;1289;544791;-74
2024/02/21 04:26:28;;;;;;;9.50;3.30;;;;;;;;;;103603;1302;544742;-72
2024/02/21 04:30:06;;;;;;;9.70;3.10;;;;;;;;;;103542;1292;544995;-73
2024/02/21 04:33:43;;;;;;;8.90;3.40;;;;;;;;;;103396;1297;545641;-73
2024/02/21 04:37:20;;;;;;;11.10;3.60;;;;;;;;;;103739;1292;544769;-73
2024/02/21 04:40:58;;;;;;;10.30;3.40;;;;;;;;;;103637;1295;545951;-73
2024/02/21 04:44:34;;;;;;;11.30;3.50;;;;;;;;;;103757;1291;545870;-72
2024/02/21 04:48:12;;;;;;;10.90;3.20;;;;;;;;;;103402;1292;544974;-73
2024/02/21 04:51:50;;;;;;;11.70;3.90;;;;;;;;;;104115;1283;544957;-73
2024/02/21 04:55:28;;;;;;;11.60;4.20;;;;;;;;;;103647;1296;545620;-73
2024/02/21 04:59:05;;;;;;;11.70;4.60;;;;;;;;;;103780;1291;545645;-73
2024/02/21 05:02:43;;;;;;;13.90;5.40;;;;;;;;;;103875;1289;546185;-73
2024/02/21 05:06:20;;;;;;;11.80;4.40;;;;;;;;;;104707;1294;544942;-73
2024/02/21 05:09:58;;;;;;;13.40;4.50;;;;;;;;;;103799;1289;545568;-73
2024/02/21 05:13:35;;;;;;;10.60;4.00;;;;;;;;;;103709;1292;544954;-73
2024/02/21 05:17:08;;;;;;;10.40;4.20;;;;;;;;;;104120;1286;545683;-73
2024/02/21 05:20:49;;;;;;;12.10;4.40;;;;;;;;;;103836;1296;544755;-73
2024/02/21 05:24:29;;;;;;;12.50;4.50;;;;;;;;;;104070;1291;544804;-73
2024/02/21 05:28:06;;;;;;;14.20;4.60;;;;;;;;;;103788;1290;545056;-73
2024/02/21 05:31:51;;;;;;;13.60;4.90;;;;;;;;;;103741;1291;544936;-73
2024/02/21 05:35:24;;;;;;;12.00;5.20;;;;;;;;;;103737;1292;545420;-73
2024/02/21 05:38:57;;;;;;;16.10;5.10;;;;;;;;;;104117;1285;544807;-73
2024/02/21 05:42:30;;;;;;;16.00;5.30;;;;;;;;;;103781;1289;544973;-73
2024/02/21 05:46:13;;;;;;;12.30;5.10;;;;;;;;;;103626;1292;545029;-73
2024/02/21 05:49:53;;;;;;;12.60;4.70;;;;;;;;;;103694;1291;546129;-73
2024/02/21 05:53:27;;;;;;;12.90;5.00;;;;;;;;;;103653;1291;545085;-73
2024/02/21 05:57:05;;;;;;;10.90;4.30;;;;;;;;;;103734;1289;545028;-74
2024/02/21 06:00:42;;;;;;;11.10;4.20;;;;;;;;;;103795;1289;544776;-73
2024/02/21 06:04:18;;;;;;;12.30;4.60;;;;;;;;;;103261;1295;545515;-73
2024/02/21 06:07:53;;;;;;;15.90;6.10;;;;;;;;;;103783;1289;545033;-72
2024/02/21 06:11:37;;;;;;;14.00;6.20;;;;;;;;;;103816;1289;545768;-73
2024/02/21 06:15:08;;;;;;;13.70;4.60;;;;;;;;;;103580;1292;546021;-71
2024/02/21 06:18:52;;;;;;;15.10;4.90;;;;;;;;;;103852;1290;545490;-73
2024/02/21 06:22:26;;;;;;;14.30;4.70;;;;;;;;;;103762;1290;545004;-73
2024/02/21 06:26:04;;;;;;;12.20;4.80;;;;;;;;;;103693;1295;544997;-72
2024/02/21 06:29:42;;;;;;;15.00;5.20;;;;;;;;;;103631;1291;545494;-73
2024/02/21 06:33:24;;;;;;;15.60;4.90;;;;;;;;;;103713;1292;544763;-72
2024/02/21 06:36:56;;;;;;;13.20;5.00;;;;;;;;;;103906;1289;545029;-73
2024/02/21 06:40:38;;;;;;;14.40;4.80;;;;;;;;;;103794;1296;544957;-73
2024/02/21 06:44:12;;;;;;;15.30;5.50;;;;;;;;;;103814;1296;544806;-73
2024/02/21 06:47:49;;;;;;;15.60;6.00;;;;;;;;;;103709;1291;545382;-73
2024/02/21 06:51:27;;;;;;;17.80;5.80;;;;;;;;;;103631;1291;544756;-73
2024/02/21 06:55:04;;;;;;;17.40;6.70;;;;;;;;;;103832;1289;545034;-73
2024/02/21 06:58:42;;;;;;;22.40;8.70;;;;;;;;;;103828;1290;545060;-73
2024/02/21 07:02:19;;;;;;;21.10;10.20;;;;;;;;;;103766;1289;544739;-73
2024/02/21 07:05:56;;;;;;;21.90;10.00;;;;;;;;;;103645;1292;544831;-74
2024/02/21 07:09:34;;;;;;;23.90;10.30;;;;;;;;;;103773;1293;545365;-74
2024/02/21 07:13:08;;;;;;;20.80;9.20;;;;;;;;;;103822;1289;545495;-73
2024/02/21 07:16:49;;;;;;;20.00;8.70;;;;;;;;;;103892;1292;545070;-73
2024/02/21 07:20:27;;;;;;;16.50;7.70;;;;;;;;;;103709;1289;545015;-73
2024/02/21 07:24:04;;;;;;;16.00;7.40;;;;;;;;;;103653;1289;544809;-72
2024/02/21 07:27:42;;;;;;;17.70;7.50;;;;;;;;;;103639;1292;545563;-73
2024/02/21 07:31:19;;;;;;;16.40;7.80;;;;;;;;;;103741;1290;545158;-72
2024/02/21 07:34:56;;;;;;;19.80;8.60;;;;;;;;;;103786;1295;546131;-73
2024/02/21 07:38:33;;;;;;;16.50;7.20;;;;;;;;;;103749;1290;545010;-72
2024/02/21 07:42:11;;;;;;;19.10;7.20;;;;;;;;;;103624;1293;545163;-73
2024/02/21 07:45:48;;;;;;;20.60;8.40;;;;;;;;;;103796;1289;544790;-73
2024/02/21 07:49:26;;;;;;;25.20;8.90;;;;;;;;;;103947;1289;544955;-73
2024/02/21 07:53:03;;;;;;;18.40;8.30;;;;;;;;;;103892;1293;545553;-72
2024/02/21 07:56:41;;;;;;;15.70;6.80;;;;;;;;;;103697;1292;544878;-73
2024/02/21 08:00:19;;;;;;;17.50;6.20;;;;;;;;;;103751;1289;544795;-73
2024/02/21 08:03:55;;;;;;;15.80;6.20;;;;;;;;;;103787;1292;545794;-73
2024/02/21 08:07:33;;;;;;;16.50;6.20;;;;;;;;;;103790;1301;545949;-73
2024/02/21 08:11:07;;;;;;;15.00;6.80;;;;;;;;;;103766;1289;545622;-73
2024/02/21 08:14:47;;;;;;;16.00;6.70;;;;;;;;;;103747;1290;545740;-72
2024/02/21 08:18:25;;;;;;;17.70;6.10;;;;;;;;;;103634;1292;544995;-73
2024/02/21 08:22:03;;;;;;;15.60;5.60;;;;;;;;;;103794;1289;544917;-72
2024/02/21 08:25:40;;;;;;;15.30;6.10;;;;;;;;;;104405;1286;544987;-72
2024/02/21 08:29:18;;;;;;;18.80;7.20;;;;;;;;;;103568;1289;544795;-73
2024/02/21 08:32:55;;;;;;;20.90;7.90;;;;;;;;;;103622;1292;545363;-72
2024/02/21 08:36:33;;;;;;;21.40;8.10;;;;;;;;;;103686;1292;546428;-73
2024/02/21 08:40:10;;;;;;;21.10;8.90;;;;;;;;;;103533;1290;545440;-72
2024/02/21 08:43:47;;;;;;;24.20;9.40;;;;;;;;;;103917;1289;545034;-73
2024/02/21 08:47:25;;;;;;;23.40;9.10;;;;;;;;;;103616;1292;544988;-72
2024/02/21 08:51:03;;;;;;;21.20;9.30;;;;;;;;;;103655;1289;544851;-72
2024/02/21 08:54:40;;;;;;;19.40;8.00;;;;;;;;;;103445;1292;545065;-73
2024/02/21 08:58:17;;;;;;;19.20;9.30;;;;;;;;;;103742;1292;545317;-73
2024/02/21 09:01:53;;;;;;;18.10;8.60;;;;;;;;;;103703;1288;544896;-72
2024/02/21 09:05:34;;;;;;;20.30;8.70;;;;;;;;;;103452;1295;544751;-73
2024/02/21 09:09:08;;;;;;;16.00;5.60;;;;;;;;;;103921;1289;545091;-71
2024/02/21 09:12:47;;;;;;;23.30;8.30;;;;;;;;;;103650;1293;544769;-73
2024/02/21 09:16:25;;;;;;;15.50;7.40;;;;;;;;;;103751;1289;544854;-73
2024/02/21 09:20:03;;;;;;;18.20;8.80;;;;;;;;;;103613;1292;545521;-73
2024/02/21 09:23:40;;;;;;;18.70;8.40;;;;;;;;;;103725;1291;544857;-73
2024/02/21 09:27:17;;;;;;;14.00;6.90;;;;;;;;;;103648;1295;545679;-73
2024/02/21 09:30:55;;;;;;;15.60;7.10;;;;;;;;;;103602;1289;544881;-72
2024/02/21 09:34:32;;;;;;;12.50;5.40;;;;;;;;;;103678;1292;544964;-72
2024/02/21 09:38:10;;;;;;;17.60;7.80;;;;;;;;;;103579;1289;544792;-72
2024/02/21 09:41:52;;;;;;;11.90;5.30;;;;;;;;;;103653;1292;545061;-73
2024/02/21 09:45:24;;;;;;;13.50;6.90;;;;;;;;;;103946;1292;544912;-73
2024/02/21 09:49:03;;;;;;;12.50;6.80;;;;;;;;;;104439;1282;544982;-73
2024/02/21 09:52:40;;;;;;;15.20;6.70;;;;;;;;;;103723;1289;545010;-73
2024/02/21 09:56:17;;;;;;;11.70;5.00;;;;;;;;;;103412;1295;545525;-72
2024/02/21 09:59:55;;;;;;;11.20;5.20;;;;;;;;;;103532;1291;545623;-73
2024/02/21 10:03:28;;;;;;;13.10;4.90;;;;;;;;;;103916;1287;545878;-72
2024/02/21 10:07:05;;;;;;;13.80;5.80;;;;;;;;;;103928;1289;545628;-71
2024/02/21 10:10:47;;;;;;;12.60;4.70;;;;;;;;;;103692;1290;545258;-73
2024/02/21 10:14:24;;;;;;;15.80;7.10;;;;;;;;;;104017;1289;545362;-73
2024/02/21 10:18:06;;;;;;;16.40;7.10;;;;;;;;;;103571;1289;545379;-72
2024/02/21 10:21:35;;;;;;;16.90;7.70;;;;;;;;;;103740;1288;544988;-73
2024/02/21 10:25:19;;;;;;;18.00;8.30;;;;;;;;;;103575;1291;544725;-73
2024/02/21 10:28:54;;;;;;;18.60;9.20;;;;;;;;;;103775;1289;545371;-74
2024/02/21 10:32:32;;;;;;;14.00;6.70;;;;;;;;;;103581;1292;544870;-74
2024/02/21 10:36:10;;;;;;;12.00;5.60;;;;;;;;;;103766;1292;545405;-73
2024/02/21 10:39:47;;;;;;;13.20;5.00;;;;;;;;;;103774;1292;545620;-73
2024/02/21 10:43:25;;;;;;;14.30;6.20;;;;;;;;;;103928;1289;544944;-73
2024/02/21 10:47:05;;;;;;;12.90;5.30;;;;;;;;;;103636;1294;545210;-73
2024/02/21 10:50:59;;;;;;;10.20;4.70;;;;;;;;;;103782;1292;545135;-73
2024/02/21 10:54:33;;;;;;;13.50;5.70;;;;;;;;;;103785;1295;545698;-73
2024/02/21 10:57:54;;;;;;;12.20;5.30;;;;;;;;;;103831;1292;544751;-73
2024/02/21 11:01:32;;;;;;;14.10;6.20;;;;;;;;;;103768;1289;544883;-73
2024/02/21 11:05:09;;;;;;;11.90;5.20;;;;;;;;;;104182;1286;544986;-73
2024/02/21 11:08:47;;;;;;;8.80;3.80;;;;;;;;;;103533;1305;545083;-73
2024/02/21 11:12:25;;;;;;;11.50;5.20;;;;;;;;;;103824;1290;545030;-73
2024/02/21 11:16:11;;;;;;;15.30;6.70;;;;;;;;;;103898;1289;545424;-73
2024/02/21 11:19:39;;;;;;;12.70;5.70;;;;;;;;;;104095;1286;545460;-73
2024/02/21 11:23:24;;;;;;;12.20;5.30;;;;;;;;;;103834;1289;544996;-73
2024/02/21 11:26:53;;;;;;;11.10;5.30;;;;;;;;;;103782;1292;544764;-73
2024/02/21 11:30:32;;;;;;;11.10;4.90;;;;;;;;;;103805;1289;544797;-73
2024/02/21 11:34:09;;;;;;;10.70;5.00;;;;;;;;;;103767;1289;545038;-73
2024/02/21 11:37:45;;;;;;;12.40;4.90;;;;;;;;;;103886;1292;544793;-73
2024/02/21 11:41:23;;;;;;;9.20;4.40;;;;;;;;;;103756;1295;544751;-74
2024/02/21 11:45:01;;;;;;;9.20;4.70;;;;;;;;;;103771;1290;544920;-74
2024/02/21 11:48:34;;;;;;;11.40;5.00;;;;;;;;;;103925;1299;544763;-71
2024/02/21 11:52:18;;;;;;;12.40;5.00;;;;;;;;;;103758;1289;544977;-73
2024/02/21 11:55:55;;;;;;;10.00;4.90;;;;;;;;;;103768;1290;545000;-73
2024/02/21 11:59:36;;;;;;;10.00;4.10;;;;;;;;;;103513;1292;548096;-72
2024/02/21 12:03:09;;;;;;;15.70;6.60;;;;;;;;;;103754;1291;545437;-73
2024/02/21 12:06:46;;;;;;;15.40;6.70;;;;;;;;;;103764;1291;546097;-73
2024/02/21 12:10:23;;;;;;;11.50;5.20;;;;;;;;;;103668;1293;545089;-73
2024/02/21 12:14:05;;;;;;;13.60;6.60;;;;;;;;;;104346;1283;544769;-74
2024/02/21 12:17:39;;;;;;;34.40;11.40;;;;;;;;;;103637;1295;545907;-73
2024/02/21 12:21:15;;;;;;;15.70;6.10;;;;;;;;;;103729;1289;544818;-73
2024/02/21 12:24:53;;;;;;;16.60;6.40;;;;;;;;;;103633;1290;544776;-73
2024/02/21 12:28:30;;;;;;;13.10;4.80;;;;;;;;;;104014;1292;545636;-73
2024/02/21 12:32:07;;;;;;;13.00;4.20;;;;;;;;;;103672;1291;545696;-74
2024/02/21 12:35:41;;;;;;;10.40;4.60;;;;;;;;;;103712;1289;544845;-73
2024/02/21 12:39:23;;;;;;;9.90;3.90;;;;;;;;;;103675;1304;545913;-74
2024/02/21 12:43:02;;;;;;;12.10;3.70;;;;;;;;;;103834;1289;544762;-74
2024/02/21 12:46:37;;;;;;;13.80;4.00;;;;;;;;;;103632;1290;544897;-74
2024/02/21 12:50:11;;;;;;;10.70;3.50;;;;;;;;;;103797;1302;545267;-72
2024/02/21 12:53:53;;;;;;;10.30;3.60;;;;;;;;;;103721;1292;546014;-74
2024/02/21 12:57:30;;;;;;;15.40;4.70;;;;;;;;;;103737;1289;544990;-74
2024/02/21 13:01:07;;;;;;;37.00;12.20;;;;;;;;;;103583;1289;544888;-74
2024/02/21 13:04:45;;;;;;;17.50;6.30;;;;;;;;;;103935;1288;545817;-74
2024/02/21 13:08:22;;;;;;;29.80;9.20;;;;;;;;;;103756;1295;545583;-73
2024/02/21 13:12:00;;;;;;;22.10;10.00;;;;;;;;;;103798;1290;544878;-74
2024/02/21 13:15:42;;;;;;;14.30;5.30;;;;;;;;;;103728;1291;544789;-74
2024/02/21 13:19:17;;;;;;;22.90;10.00;;;;;;;;;;103790;1292;545098;-74
2024/02/21 13:22:48;;;;;;;14.20;7.30;;;;;;;;;;103895;1289;545140;-72
2024/02/21 13:26:31;;;;;;;14.60;5.70;;;;;;;;;;104094;1286;545058;-74
2024/02/21 13:30:09;;;;;;;9.70;4.30;;;;;;;;;;103811;1292;546122;-73
2024/02/21 13:33:44;;;;;;;11.50;5.70;;;;;;;;;;103821;1292;544718;-74
2024/02/21 13:37:22;;;;;;;16.00;7.10;;;;;;;;;;103681;1288;544935;-73
2024/02/21 13:41:00;;;;;;;17.10;6.70;;;;;;;;;;103749;1290;545269;-73
2024/02/21 13:44:38;;;;;;;16.30;7.70;;;;;;;;;;103606;1291;545115;-73
2024/02/21 13:48:14;;;;;;;13.10;6.70;;;;;;;;;;103656;1292;544804;-74
2024/02/21 13:51:51;;;;;;;14.20;7.30;;;;;;;;;;103775;1291;545243;-74
2024/02/21 13:55:29;;;;;;;11.30;5.50;;;;;;;;;;103791;1295;544989;-74
2024/02/21 13:59:03;;;;;;;16.00;6.90;;;;;;;;;;103796;1292;545623;-72
2024/02/21 14:02:44;;;;;;;15.00;6.60;;;;;;;;;;103869;1289;545414;-73
2024/02/21 14:06:22;;;;;;;12.30;5.50;;;;;;;;;;103696;1291;545036;-73
2024/02/21 14:09:59;;;;;;;12.90;6.20;;;;;;;;;;103771;1292;545242;-74
2024/02/21 14:13:36;;;;;;;15.00;6.80;;;;;;;;;;103726;1296;545434;-74
2024/02/21 14:17:14;;;;;;;13.90;6.90;;;;;;;;;;103823;1289;544805;-74
2024/02/21 14:20:52;;;;;;;16.40;7.50;;;;;;;;;;103857;1292;544966;-74
2024/02/21 14:24:29;;;;;;;13.10;6.40;;;;;;;;;;104175;1290;544817;-72
2024/02/21 14:28:09;;;;;;;14.20;6.10;;;;;;;;;;103751;1288;546847;-74
2024/02/21 14:31:44;;;;;;;12.80;6.40;;;;;;;;;;103721;1289;545046;-74
2024/02/21 14:35:27;;;;;;;13.60;6.60;;;;;;;;;;103144;1294;549608;-71
2024/02/21 14:38:59;;;;;;;17.40;8.00;;;;;;;;;;103708;1292;545086;-73
2024/02/21 14:42:36;;;;;;;15.70;7.30;;;;;;;;;;103595;1292;546064;-74
2024/02/21 14:46:14;;;;;;;17.50;7.60;;;;;;;;;;103490;1290;544917;-74
2024/02/21 14:49:51;;;;;;;15.70;8.40;;;;;;;;;;103363;1294;545016;-73
2024/02/21 14:53:25;;;;;;;18.00;9.00;;;;;;;;;;103768;1289;545151;-72
2024/02/21 14:57:02;;;;;;;17.00;9.00;;;;;;;;;;103913;1289;544795;-74
2024/02/21 15:00:44;;;;;;;17.10;9.10;;;;;;;;;;103877;1292;545313;-73
2024/02/21 15:04:21;;;;;;;16.30;8.80;;;;;;;;;;103709;1292;545051;-74
2024/02/21 15:07:58;;;;;;;19.10;8.80;;;;;;;;;;103743;1289;544806;-74
2024/02/21 15:11:35;;;;;;;19.70;10.10;;;;;;;;;;104141;1286;544740;-73
2024/02/21 15:15:13;;;;;;;21.90;11.40;;;;;;;;;;103773;1291;544762;-73
2024/02/21 15:18:51;;;;;;;20.60;11.00;;;;;;;;;;103755;1290;544966;-74
2024/02/21 15:22:28;;;;;;;25.40;12.00;;;;;;;;;;103774;1289;546062;-74
2024/02/21 15:26:05;;;;;;;22.90;11.90;;;;;;;;;;103655;1289;545169;-73
2024/02/21 15:29:42;;;;;;;23.20;11.40;;;;;;;;;;103480;1290;544987;-73
2024/02/21 15:33:16;;;;;;;21.10;11.50;;;;;;;;;;103764;1289;546241;-72
2024/02/21 15:36:59;;;;;;;20.10;11.80;;;;;;;;;;103817;1289;544867;-74
2024/02/21 15:40:36;;;;;;;22.00;12.00;;;;;;;;;;103700;1291;545656;-74
2024/02/21 15:44:13;;;;;;;22.40;11.80;;;;;;;;;;103551;1289;544960;-74
2024/02/21 15:47:57;;;;;;;19.80;10.90;;;;;;;;;;104200;1289;548144;-75
2024/02/21 15:51:23;;;;;;;19.70;10.30;;;;;;;;;;103705;1291;545884;-73
2024/02/21 15:55:01;;;;;;;24.80;10.90;;;;;;;;;;103632;1291;544772;-72
2024/02/21 15:58:43;;;;;;;19.40;10.90;;;;;;;;;;103805;1289;544754;-73
2024/02/21 16:02:16;;;;;;;18.50;10.40;;;;;;;;;;103800;1290;545366;-72
2024/02/21 16:06:17;;;;;;;22.80;12.20;;;;;;;;;;103723;1295;547915;-73
2024/02/21 16:09:35;;;;;;;25.40;12.10;;;;;;;;;;103724;1291;545905;-73
2024/02/21 16:13:12;;;;;;;32.80;15.00;;;;;;;;;;103586;1303;544859;-73
2024/02/21 16:16:50;;;;;;;29.40;14.00;;;;;;;;;;103780;1292;544897;-73
2024/02/21 16:20:30;;;;;;;26.60;12.40;;;;;;;;;;103836;1293;544979;-73
2024/02/21 16:24:05;;;;;;;27.50;13.00;;;;;;;;;;103645;1292;545827;-73
2024/02/21 16:27:42;;;;;;;29.30;12.60;;;;;;;;;;103741;1292;544988;-73
2024/02/21 16:31:20;;;;;;;30.40;13.80;;;;;;;;;;103662;1291;544986;-73
2024/02/21 16:34:57;;;;;;;31.20;12.90;;;;;;;;;;103740;1291;545053;-72
2024/02/21 16:38:39;;;;;;;26.10;12.20;;;;;;;;;;103590;1291;545928;-72
2024/02/21 16:42:12;;;;;;;26.80;12.70;;;;;;;;;;103675;1292;544821;-73
2024/02/21 16:45:50;;;;;;;25.10;12.10;;;;;;;;;;103730;1289;544999;-73
2024/02/21 16:49:28;;;;;;;25.20;12.90;;;;;;;;;;103741;1289;545292;-74
2024/02/21 16:53:03;;;;;;;25.40;13.00;;;;;;;;;;103825;1292;545216;-73
2024/02/21 16:56:42;;;;;;;23.20;13.00;;;;;;;;;;103757;1289;544747;-73
2024/02/21 17:00:20;;;;;;;18.20;11.20;;;;;;;;;;103784;1291;544947;-74
2024/02/21 17:03:57;;;;;;;28.00;13.80;;;;;;;;;;103846;1295;545009;-74
2024/02/21 17:07:36;;;;;;;32.50;15.40;;;;;;;;;;103699;1292;544849;-74
2024/02/21 17:11:12;;;;;;;29.90;16.30;;;;;;;;;;103661;1289;545070;-73
2024/02/21 17:14:50;;;;;;;32.40;17.50;;;;;;;;;;103698;1289;545042;-73
2024/02/21 17:18:27;;;;;;;29.80;16.40;;;;;;;;;;103695;1291;545758;-72
2024/02/21 17:22:05;;;;;;;28.20;15.10;;;;;;;;;;103631;1292;545025;-72
2024/02/21 17:25:42;;;;;;;25.70;14.30;;;;;;;;;;103773;1289;546607;-72
2024/02/21 17:29:20;;;;;;;25.80;14.00;;;;;;;;;;103760;1289;545086;-73
2024/02/21 17:32:56;;;;;;;24.40;13.10;;;;;;;;;;103786;1292;544767;-73
2024/02/21 17:36:35;;;;;;;23.00;13.30;;;;;;;;;;103837;1289;545789;-73
2024/02/21 17:40:12;;;;;;;23.80;12.60;;;;;;;;;;103779;1294;545832;-74
2024/02/21 17:43:49;;;;;;;25.60;13.10;;;;;;;;;;103660;1292;544826;-74
2024/02/21 17:47:27;;;;;;;29.70;14.40;;;;;;;;;;103899;1292;545183;-73
2024/02/21 17:51:04;;;;;;;29.60;15.30;;;;;;;;;;103632;1291;544817;-74
2024/02/21 17:54:44;;;;;;;32.60;16.30;;;;;;;;;;103752;1289;545804;-74
2024/02/21 17:58:15;;;;;;;33.90;18.00;;;;;;;;;;103924;1289;544943;-74
2024/02/21 18:01:57;;;;;;;34.60;19.50;;;;;;;;;;103589;1291;545968;-73
2024/02/21 18:05:33;;;;;;;31.90;17.40;;;;;;;;;;104438;1283;545397;-73
2024/02/21 18:09:11;;;;;;;28.60;14.30;;;;;;;;;;103812;1290;544975;-73
2024/02/21 18:12:49;;;;;;;23.30;11.30;;;;;;;;;;103633;1294;546185;-72
2024/02/21 18:16:26;;;;;;;19.60;9.50;;;;;;;;;;103758;1289;544949;-73
2024/02/21 18:20:04;;;;;;;22.60;11.20;;;;;;;;;;103775;1289;545127;-74
2024/02/21 18:23:41;;;;;;;22.10;10.50;;;;;;;;;;103775;1292;545173;-74
2024/02/21 18:27:19;;;;;;;18.50;8.00;;;;;;;;;;103719;1291;545027;-73
2024/02/21 18:30:57;;;;;;;20.10;9.50;;;;;;;;;;103839;1302;545432;-74
2024/02/21 18:34:34;;;;;;;18.60;8.20;;;;;;;;;;103627;1303;545168;-73
2024/02/21 18:38:10;;;;;;;16.40;7.80;;;;;;;;;;103821;1289;545913;-73
2024/02/21 18:41:48;;;;;;;15.50;6.90;;;;;;;;;;103710;1292;545382;-73
2024/02/21 18:45:27;;;;;;;16.10;7.50;;;;;;;;;;103947;1290;545028;-72
2024/02/21 18:49:04;;;;;;;20.90;8.30;;;;;;;;;;103695;1289;545014;-74
2024/02/21 18:52:40;;;;;;;19.60;9.10;;;;;;;;;;103802;1289;544828;-73
2024/02/21 18:56:18;;;;;;;18.50;8.80;;;;;;;;;;103676;1292;545025;-73
2024/02/21 18:59:55;;;;;;;16.50;7.80;;;;;;;;;;103575;1289;544835;-73
2024/02/21 19:03:33;;;;;;;15.80;7.30;;;;;;;;;;103358;1291;544940;-73
2024/02/21 19:07:10;;;;;;;16.40;6.90;;;;;;;;;;103746;1291;545794;-72
2024/02/21 19:10:49;;;;;;;13.90;6.40;;;;;;;;;;103772;1292;544963;-73
2024/02/21 19:14:26;;;;;;;15.10;5.40;;;;;;;;;;103747;1292;545385;-73
2024/02/21 19:17:59;;;;;;;16.50;5.70;;;;;;;;;;103679;1292;544966;-73
2024/02/21 19:21:42;;;;;;;15.00;5.20;;;;;;;;;;103792;1289;544868;-72
2024/02/21 19:25:20;;;;;;;13.30;5.50;;;;;;;;;;104048;1286;544813;-73
2024/02/21 19:28:55;;;;;;;12.90;5.60;;;;;;;;;;103798;1289;545360;-73
2024/02/21 19:32:33;;;;;;;13.40;5.60;;;;;;;;;;103744;1290;545532;-73
2024/02/21 19:36:10;;;;;;;13.00;5.50;;;;;;;;;;103833;1287;545339;-72
2024/02/21 19:39:48;;;;;;;12.30;5.90;;;;;;;;;;103887;1288;545047;-73
2024/02/21 19:43:25;;;;;;;13.10;5.70;;;;;;;;;;103614;1291;545006;-72
2024/02/21 19:46:59;;;;;;;13.60;6.20;;;;;;;;;;103805;1290;545912;-71
2024/02/21 19:50:40;;;;;;;16.10;7.00;;;;;;;;;;103945;1289;544689;-74
2024/02/21 19:54:19;;;;;;;15.10;6.00;;;;;;;;;;103799;1295;545097;-73
2024/02/21 19:57:56;;;;;;;11.20;4.50;;;;;;;;;;103856;1291;545398;-73
2024/02/21 20:01:33;;;;;;;13.00;5.20;;;;;;;;;;103866;1289;544959;-74
2024/02/21 20:05:10;;;;;;;12.50;5.50;;;;;;;;;;103683;1291;545465;-73
2024/02/21 20:08:48;;;;;;;14.40;5.30;;;;;;;;;;103792;1289;544829;-74
2024/02/21 20:12:25;;;;;;;12.60;4.60;;;;;;;;;;103904;1294;545243;-73
2024/02/21 20:15:58;;;;;;;12.60;4.80;;;;;;;;;;103711;1303;545092;-73
2024/02/21 20:19:40;;;;;;;12.30;4.90;;;;;;;;;;103979;1289;544800;-74
2024/02/21 20:23:20;;;;;;;13.40;5.00;;;;;;;;;;103681;1291;545002;-73
2024/02/21 20:26:55;;;;;;;13.70;5.60;;;;;;;;;;103817;1289;545480;-72
2024/02/21 20:30:33;;;;;;;14.50;5.80;;;;;;;;;;103919;1289;545220;-73
2024/02/21 20:34:10;;;;;;;14.20;6.30;;;;;;;;;;103684;1291;545435;-74
2024/02/21 20:37:48;;;;;;;13.10;6.00;;;;;;;;;;104441;1283;545047;-73
2024/02/21 20:41:24;;;;;;;14.30;6.10;;;;;;;;;;103961;1286;545661;-74
2024/02/21 20:44:58;;;;;;;14.40;5.90;;;;;;;;;;103695;1292;544848;-73